Time;durP1;ratioP1;P1;durP2;ratioP2;P2;SDS_P1;SDS_P2;PMS_P1;PMS_P2;Temp;Humidity;BMP_temperature;BMP_pressure;BME280_temperature;BME280_humidity;BME280_pressure;Samples;Min_cycle;Max_cycle;Signal;HPM_P1;HPM_P2
2023/09/01 00:02:36;;;;;;;5.00;3.50;;;;;;;12.09;81.27;99959.03;130981;1257;107731;-75
2023/09/01 00:05:45;;;;;;;6.90;3.50;;;;;;;12.09;81.28;99962.03;130917;1256;108296;-74
2023/09/01 00:08:51;;;;;;;4.60;3.10;;;;;;;12.02;81.24;99960.81;130940;1257;108178;-74
2023/09/01 00:11:56;;;;;;;4.50;3.20;;;;;;;12.01;81.23;99965.76;131176;1256;106446;-74
2023/09/01 00:15:03;;;;;;;3.80;3.00;;;;;;;12.03;81.23;99966.97;130921;1251;107789;-75
2023/09/01 00:18:08;;;;;;;3.80;3.10;;;;;;;12.05;81.37;99971.90;130918;1258;106665;-75
2023/09/01 00:21:14;;;;;;;5.10;3.20;;;;;;;12.07;81.24;99974.51;130917;1257;106170;-75
2023/09/01 00:24:19;;;;;;;3.90;3.10;;;;;;;12.07;81.40;99973.68;130921;1260;106833;-74
2023/09/01 00:27:25;;;;;;;5.50;3.20;;;;;;;12.07;81.54;99971.02;130975;1251;108677;-74
2023/09/01 00:30:31;;;;;;;4.90;3.40;;;;;;;12.05;81.62;99970.87;130893;1256;107195;-74
2023/09/01 00:33:36;;;;;;;5.10;2.70;;;;;;;12.01;81.53;99970.00;130954;1256;106994;-77
2023/09/01 00:36:42;;;;;;;3.90;2.90;;;;;;;12.02;81.68;99967.80;130904;1257;107723;-75
2023/09/01 00:39:48;;;;;;;3.90;3.10;;;;;;;12.04;81.58;99968.09;130600;1258;107024;-75
2023/09/01 00:42:53;;;;;;;3.70;3.10;;;;;;;12.05;81.45;99963.41;130933;1265;107799;-75
2023/09/01 00:46:00;;;;;;;4.70;3.00;;;;;;;12.02;81.61;99957.64;130943;1251;107382;-75
2023/09/01 00:49:06;;;;;;;5.50;3.50;;;;;;;12.01;81.57;99961.45;130909;1255;107091;-75
2023/09/01 00:52:12;;;;;;;3.70;3.00;;;;;;;12.01;81.57;99967.27;130814;1257;107459;-75
2023/09/01 00:55:18;;;;;;;4.40;2.70;;;;;;;11.95;81.33;99970.05;130857;1257;107871;-75
2023/09/01 00:58:25;;;;;;;5.50;2.40;;;;;;;11.86;81.20;99977.38;130955;1258;106848;-75
2023/09/01 01:01:31;;;;;;;4.40;3.10;;;;;;;11.81;81.56;99972.60;130837;1256;136690;-75
2023/09/01 01:04:36;;;;;;;3.70;2.80;;;;;;;11.79;81.63;99968.66;130947;1256;107812;-75
2023/09/01 01:07:52;;;;;;;4.20;3.00;;;;;;;11.82;81.70;99977.65;130647;1267;106856;-75
2023/09/01 01:11:06;;;;;;;4.30;2.90;;;;;;;11.83;81.68;99975.63;130918;1254;108468;-76
2023/09/01 01:14:20;;;;;;;5.50;3.10;;;;;;;11.81;81.64;99971.33;130928;1251;108734;-76
2023/09/01 01:17:26;;;;;;;7.10;3.30;;;;;;;11.78;81.68;99967.65;130684;1267;107722;-75
2023/09/01 01:20:36;;;;;;;3.20;2.30;;;;;;;11.76;81.92;99958.67;130694;1258;108569;-75
2023/09/01 01:23:42;;;;;;;5.00;2.30;;;;;;;11.77;82.02;99951.95;130946;1257;107747;-75
2023/09/01 01:26:48;;;;;;;4.60;3.10;;;;;;;11.84;82.21;99957.06;130918;1257;106628;-75
2023/09/01 01:29:54;;;;;;;4.60;3.00;;;;;;;11.91;82.43;99960.79;130884;1257;107577;-74
2023/09/01 01:33:00;;;;;;;5.50;3.40;;;;;;;12.01;82.35;99958.41;130917;1251;106469;-75
2023/09/01 01:36:19;;;;;;;3.50;2.90;;;;;;;12.08;82.59;99966.41;130881;1260;108601;-75
2023/09/01 01:39:28;;;;;;;3.80;3.00;;;;;;;12.14;82.67;99974.00;130958;1257;108143;-75
2023/09/01 01:42:36;;;;;;;3.40;2.60;;;;;;;12.16;82.68;99971.02;130863;1255;106793;-75
2023/09/01 01:45:44;;;;;;;3.60;3.00;;;;;;;12.24;82.86;99974.10;130664;1257;106440;-75
2023/09/01 01:48:50;;;;;;;4.30;3.20;;;;;;;12.34;83.04;99974.74;130907;1257;105540;-75
2023/09/01 01:51:56;;;;;;;4.90;3.00;;;;;;;12.43;82.76;99972.75;130940;1257;106668;-74
2023/09/01 01:55:02;;;;;;;5.10;3.30;;;;;;;12.49;82.81;99968.82;130898;1258;106975;-75
2023/09/01 01:58:07;;;;;;;5.20;3.20;;;;;;;12.54;82.86;99968.63;130872;1257;107853;-75
2023/09/01 02:01:14;;;;;;;4.10;3.10;;;;;;;12.55;82.66;99964.75;130911;1258;107380;-75
2023/09/01 02:04:19;;;;;;;4.10;2.70;;;;;;;12.52;82.82;99960.04;131089;1251;108777;-76
2023/09/01 02:07:26;;;;;;;3.90;3.00;;;;;;;12.54;83.04;99964.56;130947;1257;106364;-75
2023/09/01 02:10:32;;;;;;;3.10;2.80;;;;;;;12.56;82.99;99971.69;130941;1264;107688;-75
2023/09/01 02:13:37;;;;;;;4.20;3.20;;;;;;;12.57;83.01;99970.96;130920;1256;107020;-74
2023/09/01 02:16:43;;;;;;;5.60;3.30;;;;;;;12.54;82.93;99970.87;130916;1256;106940;-75
2023/09/01 02:19:49;;;;;;;3.40;3.10;;;;;;;12.51;82.85;99971.29;130908;1256;108227;-75
2023/09/01 02:22:56;;;;;;;5.30;3.00;;;;;;;12.45;82.79;99976.96;130894;1251;107596;-76
2023/09/01 02:26:04;;;;;;;4.00;2.70;;;;;;;12.36;82.71;99973.48;130955;1257;108741;-75
2023/09/01 02:29:10;;;;;;;4.40;3.10;;;;;;;12.30;82.85;99971.52;130653;1257;107783;-75
2023/09/01 02:32:16;;;;;;;4.00;3.10;;;;;;;12.28;82.82;99975.84;130944;1256;108428;-75
2023/09/01 02:35:21;;;;;;;4.90;3.20;;;;;;;12.24;82.84;99977.05;130906;1255;107056;-75
2023/09/01 02:38:27;;;;;;;3.40;3.10;;;;;;;12.17;82.91;99970.91;130689;1266;107537;-74
2023/09/01 02:41:33;;;;;;;6.10;3.00;;;;;;;12.13;83.00;99969.22;130867;1256;108771;-74
2023/09/01 02:44:39;;;;;;;3.70;3.00;;;;;;;12.07;83.08;99970.86;130935;1256;106584;-74
2023/09/01 02:47:44;;;;;;;3.90;3.40;;;;;;;12.00;83.16;99974.59;130880;1251;108507;-75
2023/09/01 02:50:50;;;;;;;4.20;2.90;;;;;;;11.94;83.08;99976.57;130943;1258;106657;-74
2023/09/01 02:53:55;;;;;;;3.80;3.30;;;;;;;11.88;83.12;99985.92;130895;1257;107810;-75
2023/09/01 02:57:01;;;;;;;5.20;3.10;;;;;;;11.87;83.28;99989.17;130914;1256;107454;-75
2023/09/01 03:00:18;;;;;;;4.50;3.30;;;;;;;11.90;83.60;99980.14;130702;1266;107654;-74
2023/09/01 03:03:25;;;;;;;4.10;3.30;;;;;;;11.92;83.47;99982.25;130956;1257;107112;-75
2023/09/01 03:06:30;;;;;;;6.30;3.50;;;;;;;11.90;83.38;99986.10;130991;1256;108167;-75
2023/09/01 03:09:36;;;;;;;4.90;3.50;;;;;;;11.87;83.63;99984.98;130906;1254;108694;-74
2023/09/01 03:12:42;;;;;;;3.80;3.20;;;;;;;11.91;84.08;99999.67;130870;1257;107645;-77
2023/09/01 03:15:48;;;;;;;4.30;3.10;;;;;;;11.97;84.32;100000.59;130672;1258;107727;-75
2023/09/01 03:18:59;;;;;;;3.80;3.30;;;;;;;12.08;84.35;99995.27;130958;1251;106676;-76
2023/09/01 03:22:05;;;;;;;4.10;3.30;;;;;;;12.19;84.41;99998.06;130994;1257;107705;-75
2023/09/01 03:25:11;;;;;;;4.80;3.30;;;;;;;12.26;84.32;99996.58;130941;1258;106331;-76
2023/09/01 03:28:17;;;;;;;4.50;3.50;;;;;;;12.30;84.32;99991.15;130994;1258;107860;-76
2023/09/01 03:31:23;;;;;;;6.30;3.30;;;;;;;12.32;84.30;99982.69;130930;1258;106395;-76
2023/09/01 03:34:33;;;;;;;;;;;;;;;12.33;84.32;99983.29;130957;1267;105994;-76
2023/09/01 03:37:41;;;;;;;3.80;2.90;;;;;;;12.31;84.39;99980.27;130976;1257;107863;-76
2023/09/01 03:40:47;;;;;;;3.80;3.20;;;;;;;12.31;84.21;99982.41;130934;1258;107099;-78
2023/09/01 03:43:52;;;;;;;4.10;3.00;;;;;;;12.30;84.17;99980.59;130921;1256;107566;-79
2023/09/01 03:46:58;;;;;;;5.20;3.80;;;;;;;12.27;84.01;99980.01;130949;1251;106578;-77
2023/09/01 03:50:08;;;;;;;4.70;3.10;;;;;;;12.24;84.16;99985.01;130874;1267;107716;-76
2023/09/01 03:53:14;;;;;;;3.40;3.10;;;;;;;12.21;84.30;99987.46;130757;1251;107082;-76
2023/09/01 03:56:22;;;;;;;4.00;2.90;;;;;;;12.25;84.41;99984.77;130913;1251;108420;-75
2023/09/01 03:59:28;;;;;;;4.40;3.20;;;;;;;12.32;84.37;99987.54;130900;1251;107144;-76
2023/09/01 04:02:34;;;;;;;4.70;3.60;;;;;;;12.36;84.31;99991.33;130976;1256;108701;-76
2023/09/01 04:05:40;;;;;;;6.40;3.30;;;;;;;12.31;84.45;99998.43;130760;1258;106857;-75
2023/09/01 04:08:46;;;;;;;5.10;3.40;;;;;;;12.24;84.33;100001.23;130925;1257;107695;-76
2023/09/01 04:11:52;;;;;;;4.10;3.20;;;;;;;12.22;84.41;100003.64;130651;1251;107829;-76
2023/09/01 04:14:57;;;;;;;4.10;3.10;;;;;;;12.22;84.49;100014.27;130850;1251;106930;-76
2023/09/01 04:18:03;;;;;;;4.50;3.30;;;;;;;12.24;84.49;100016.29;130958;1257;106845;-76
2023/09/01 04:21:09;;;;;;;3.50;2.80;;;;;;;12.25;84.21;100016.27;130883;1256;106500;-75
2023/09/01 04:24:15;;;;;;;4.30;3.30;;;;;;;12.27;84.30;100016.98;130895;1257;107111;-76
2023/09/01 04:27:20;;;;;;;4.20;3.20;;;;;;;12.30;84.34;100017.74;130717;1257;107029;-76
2023/09/01 04:30:26;;;;;;;4.00;3.30;;;;;;;12.30;84.21;100016.73;130760;1258;108664;-75
2023/09/01 04:33:32;;;;;;;5.10;3.60;;;;;;;12.31;84.24;100013.42;130648;1252;108657;-75
2023/09/01 04:36:39;;;;;;;4.30;3.50;;;;;;;12.35;84.51;100008.02;130935;1256;107853;-76
2023/09/01 04:39:44;;;;;;;4.40;3.20;;;;;;;12.51;84.75;100008.55;130827;1257;107784;-76
2023/09/01 04:42:50;;;;;;;6.30;3.80;;;;;;;12.72;84.80;100010.61;130930;1256;107755;-76
2023/09/01 04:45:57;;;;;;;4.70;3.90;;;;;;;12.94;84.67;100012.48;130950;1256;107870;-76
2023/09/01 04:49:03;;;;;;;6.10;4.60;;;;;;;13.16;84.66;100018.02;130921;1251;108701;-76
2023/09/01 04:52:09;;;;;;;4.10;3.70;;;;;;;13.36;84.49;100014.36;130653;1253;107683;-76
2023/09/01 04:55:15;;;;;;;6.40;4.00;;;;;;;13.50;84.31;100017.22;130712;1257;106793;-76
2023/09/01 04:58:20;;;;;;;3.80;3.30;;;;;;;13.67;84.59;100012.58;130833;1251;107141;-77
2023/09/01 05:01:26;;;;;;;5.50;3.20;;;;;;;13.84;84.40;100015.26;130738;1256;107686;-77
2023/09/01 05:04:32;;;;;;;4.20;3.20;;;;;;;14.02;84.47;100017.23;132411;1256;106617;-78
2023/09/01 05:07:38;;;;;;;5.10;3.70;;;;;;;14.26;84.65;100015.95;130888;1256;107476;-77
2023/09/01 05:10:44;;;;;;;4.20;3.30;;;;;;;14.50;84.42;100013.87;130635;1258;108738;-77
2023/09/01 05:13:50;;;;;;;4.50;3.20;;;;;;;14.69;83.96;100013.13;130955;1267;106364;-76
2023/09/01 05:16:56;;;;;;;3.40;3.10;;;;;;;14.83;83.81;100010.77;130887;1257;108754;-77
2023/09/01 05:20:03;;;;;;;4.30;3.00;;;;;;;14.88;83.96;100012.30;131007;1251;107425;-77
2023/09/01 05:23:09;;;;;;;3.70;2.60;;;;;;;15.02;84.04;100015.41;130832;1251;107005;-77
2023/09/01 05:26:15;;;;;;;3.10;2.20;;;;;;;15.14;84.23;100013.73;130753;1255;107856;-77
2023/09/01 05:29:21;;;;;;;4.90;2.70;;;;;;;15.23;83.84;100011.41;131046;1256;107792;-78
2023/09/01 05:32:27;;;;;;;4.90;2.80;;;;;;;15.30;83.72;100019.14;131134;1251;109570;-78
2023/09/01 05:35:33;;;;;;;3.20;2.70;;;;;;;15.31;83.63;100028.33;131035;1256;108268;-77
2023/09/01 05:38:38;;;;;;;3.10;2.80;;;;;;;15.31;83.70;100030.61;130781;1253;106457;-77
2023/09/01 05:41:44;;;;;;;3.40;2.90;;;;;;;15.30;83.52;100035.06;130964;1251;107549;-78
2023/09/01 05:44:50;;;;;;;3.90;2.90;;;;;;;15.24;83.55;100033.70;130922;1256;106564;-77
2023/09/01 05:47:57;;;;;;;4.60;3.10;;;;;;;15.13;83.03;100040.23;131584;1251;108728;-79
2023/09/01 05:51:04;;;;;;;3.60;2.60;;;;;;;14.99;82.83;100049.02;131099;1256;106131;-79
2023/09/01 05:54:09;;;;;;;2.50;2.00;;;;;;;14.93;83.42;100046.46;131020;1256;107852;-79
2023/09/01 05:57:15;;;;;;;5.70;2.30;;;;;;;14.99;83.53;100045.35;130933;1251;107963;-79
2023/09/01 06:00:23;;;;;;;3.30;2.60;;;;;;;15.05;83.48;100049.77;130990;1256;108424;-79
2023/09/01 06:03:29;;;;;;;3.40;2.70;;;;;;;15.12;83.12;100052.04;131020;1251;108129;-79
2023/09/01 06:06:35;;;;;;;4.20;2.60;;;;;;;15.15;83.11;100048.41;130846;1256;106472;-81
2023/09/01 06:09:41;;;;;;;3.80;2.80;;;;;;;15.19;82.94;100054.56;130947;1256;108040;-80
2023/09/01 06:12:47;;;;;;;3.30;2.70;;;;;;;15.21;82.97;100053.26;130912;1254;108636;-79
2023/09/01 06:15:52;;;;;;;3.50;2.60;;;;;;;15.21;82.77;100055.61;130967;1256;106582;-79
2023/09/01 06:19:00;;;;;;;2.80;2.20;;;;;;;15.21;82.87;100057.33;130934;1252;107735;-79
2023/09/01 06:22:06;;;;;;;3.20;2.20;;;;;;;15.24;82.57;100058.07;130993;1256;108508;-80
2023/09/01 06:25:12;;;;;;;4.00;2.20;;;;;;;15.29;82.73;100054.42;130939;1256;106710;-80
2023/09/01 06:28:18;;;;;;;3.00;2.20;;;;;;;15.37;82.53;100051.02;130995;1256;106481;-81
2023/09/01 06:31:24;;;;;;;2.70;2.30;;;;;;;15.45;82.34;100056.27;130951;1253;106659;-80
2023/09/01 06:34:30;;;;;;;2.60;2.30;;;;;;;15.52;82.20;100053.95;130937;1256;108627;-79
2023/09/01 06:37:35;;;;;;;4.20;3.10;;;;;;;15.60;82.30;100056.48;131087;1256;108679;-81
2023/09/01 06:40:41;;;;;;;4.60;2.70;;;;;;;15.65;82.07;100057.08;131438;1251;106933;-81
2023/09/01 06:43:47;;;;;;;4.40;3.00;;;;;;;15.71;82.18;100056.42;131326;1255;106338;-79
2023/09/01 06:46:53;;;;;;;3.70;2.90;;;;;;;15.76;82.06;100057.95;130955;1256;106848;-79
2023/09/01 06:49:59;;;;;;;2.50;2.20;;;;;;;15.80;81.78;100060.02;130995;1255;107233;-79
2023/09/01 06:53:06;;;;;;;2.40;2.10;;;;;;;15.86;81.62;100065.30;130917;1256;107676;-80
2023/09/01 06:56:11;;;;;;;2.70;2.40;;;;;;;15.96;81.16;100063.56;130935;1257;108673;-79
2023/09/01 06:59:17;;;;;;;3.40;2.20;;;;;;;16.03;79.87;100067.61;130951;1256;106640;-79
2023/09/01 07:02:23;;;;;;;3.90;2.20;;;;;;;16.08;80.60;100072.59;130924;1251;107697;-79
2023/09/01 07:05:29;;;;;;;2.40;2.00;;;;;;;16.18;80.52;100071.67;130980;1253;107036;-79
2023/09/01 07:08:34;;;;;;;3.30;2.10;;;;;;;16.25;80.27;100075.63;131474;1253;107790;-79
2023/09/01 07:11:40;;;;;;;2.30;1.90;;;;;;;16.34;80.17;100071.92;131709;1252;107686;-79
2023/09/01 07:14:46;;;;;;;2.50;2.30;;;;;;;16.38;79.95;100075.42;131449;1253;106626;-78
2023/09/01 07:17:51;;;;;;;2.50;2.00;;;;;;;16.43;79.87;100078.09;130965;1251;106838;-79
2023/09/01 07:21:01;;;;;;;3.10;2.00;;;;;;;16.48;79.49;100079.16;131128;1251;106792;-79
2023/09/01 07:24:07;;;;;;;2.80;2.00;;;;;;;16.53;79.26;100079.32;131261;1256;108066;-78
2023/09/01 07:27:13;;;;;;;5.30;1.70;;;;;;;16.59;79.19;100078.69;131100;1253;106782;-79
2023/09/01 07:30:19;;;;;;;3.00;1.70;;;;;;;16.69;78.60;100081.98;131031;1256;106791;-79
2023/09/01 07:33:28;;;;;;;2.70;1.50;;;;;;;16.74;77.92;100087.79;131001;1251;106529;-78
2023/09/01 07:36:33;;;;;;;2.90;1.80;;;;;;;16.80;78.20;100078.23;131028;1256;107174;-79
2023/09/01 07:39:39;;;;;;;2.00;1.30;;;;;;;16.88;78.05;100082.19;130966;1256;107853;-80
2023/09/01 07:42:45;;;;;;;1.90;1.40;;;;;;;16.95;77.87;100084.00;130884;1256;107698;-79
2023/09/01 07:45:51;;;;;;;3.40;1.60;;;;;;;16.99;76.72;100086.34;131042;1256;107890;-79
2023/09/01 07:48:56;;;;;;;3.00;1.60;;;;;;;17.05;77.86;100085.18;131100;1256;106650;-79
2023/09/01 07:52:02;;;;;;;2.10;1.30;;;;;;;17.13;77.69;100086.30;130914;1251;106758;-79
2023/09/01 07:55:09;;;;;;;1.60;1.30;;;;;;;17.20;77.06;100090.65;130922;1255;106765;-79
2023/09/01 07:58:15;;;;;;;1.70;1.40;;;;;;;17.26;76.14;100096.36;130988;1256;107256;-79
2023/09/01 08:01:20;;;;;;;1.90;1.40;;;;;;;17.35;76.53;100093.56;131088;1253;107905;-79
2023/09/01 08:04:26;;;;;;;1.80;1.40;;;;;;;17.46;76.08;100091.33;131009;1256;106585;-79
2023/09/01 08:07:32;;;;;;;2.10;1.50;;;;;;;17.53;75.65;100094.16;131053;1251;108313;-80
2023/09/01 08:10:38;;;;;;;1.80;1.30;;;;;;;17.61;75.91;100094.57;131034;1256;106977;-81
2023/09/01 08:13:44;;;;;;;1.70;1.20;;;;;;;17.68;75.56;100096.91;131105;1256;108485;-80
2023/09/01 08:16:50;;;;;;;2.80;1.00;;;;;;;17.72;75.38;100098.09;130992;1256;108826;-79
2023/09/01 08:19:59;;;;;;;1.90;1.00;;;;;;;17.76;73.17;100098.17;131272;1252;106673;-80
2023/09/01 08:23:05;;;;;;;1.60;1.10;;;;;;;17.80;72.67;100096.03;132362;1253;106970;-79
2023/09/01 08:26:11;;;;;;;1.60;0.90;;;;;;;17.96;73.62;100095.72;130967;1256;106199;-79
2023/09/01 08:29:16;;;;;;;1.40;1.10;;;;;;;18.15;73.68;100093.95;131156;1256;107733;-79
2023/09/01 08:32:22;;;;;;;2.00;1.00;;;;;;;18.30;72.34;100092.41;131272;1256;106457;-79
2023/09/01 08:35:28;;;;;;;1.50;1.10;;;;;;;18.44;72.22;100099.15;131158;1251;106631;-79
2023/09/01 08:38:35;;;;;;;2.00;1.10;;;;;;;18.59;72.03;100097.92;131796;1252;106779;-80
2023/09/01 08:41:43;;;;;;;2.20;1.00;;;;;;;18.72;71.53;100095.59;131283;1256;107860;-79
2023/09/01 08:44:49;;;;;;;1.90;1.20;;;;;;;18.82;71.80;100099.09;131232;1256;106660;-82
2023/09/01 08:47:55;;;;;;;2.00;1.10;;;;;;;18.91;71.59;100099.08;131370;1252;107791;-83
2023/09/01 08:51:03;;;;;;;1.20;1.00;;;;;;;18.98;71.25;100102.89;131174;1251;106792;-82
2023/09/01 08:54:10;;;;;;;1.90;1.20;;;;;;;19.06;71.69;100097.05;131124;1263;107727;-82
2023/09/01 08:57:15;;;;;;;1.40;0.90;;;;;;;19.13;71.19;100097.02;131118;1256;107729;-81
2023/09/01 09:00:21;;;;;;;1.70;1.30;;;;;;;19.20;71.14;100100.69;131218;1256;107671;-82
2023/09/01 09:03:27;;;;;;;1.90;1.10;;;;;;;19.27;70.62;100104.34;131235;1256;106755;-84
2023/09/01 09:06:37;;;;;;;1.60;1.30;;;;;;;19.29;70.04;100102.29;131155;1256;107772;-84
2023/09/01 09:09:53;;;;;;;2.10;1.10;;;;;;;19.30;70.07;100105.28;131066;1256;108710;-81
2023/09/01 09:12:59;;;;;;;2.50;1.20;;;;;;;19.31;69.53;100109.52;131114;1252;109803;-84
2023/09/01 09:16:13;;;;;;;3.00;1.50;;;;;;;19.27;68.65;100111.83;131099;1253;106926;-82
2023/09/01 09:19:19;;;;;;;5.60;2.70;;;;;;;19.23;69.53;100107.89;131112;1256;107007;-82
2023/09/01 09:22:27;;;;;;;3.20;1.70;;;;;;;19.24;69.49;100103.80;131281;1253;107633;-82
2023/09/01 09:30:11;;;;;;;1.80;1.30;;;;;;;19.22;68.96;100110.29;131245;1251;108652;-83
2023/09/01 09:33:29;;;;;;;2.10;1.30;;;;;;;19.20;67.90;100108.52;131097;1252;107621;-82
2023/09/01 09:36:36;;;;;;;1.90;1.10;;;;;;;19.17;66.94;100110.33;131162;1256;107673;-82
2023/09/01 09:39:43;;;;;;;2.80;1.30;;;;;;;19.14;67.97;100105.99;131219;1251;107781;-81
2023/09/01 09:42:48;;;;;;;2.30;1.40;;;;;;;19.20;68.21;100109.10;131084;1251;107648;-81
2023/09/01 09:45:55;;;;;;;2.10;1.30;;;;;;;19.30;67.79;100107.49;131038;1252;107759;-81
2023/09/01 09:49:02;;;;;;;1.70;1.30;;;;;;;19.41;68.06;100104.98;131029;1256;108549;-81
2023/09/01 09:52:09;;;;;;;2.80;1.40;;;;;;;19.49;67.98;100110.73;131016;1256;107771;-81
2023/09/01 09:55:23;;;;;;;1.60;1.30;;;;;;;19.59;68.13;100108.60;131115;1253;107594;-80
2023/09/01 09:58:39;;;;;;;2.50;1.70;;;;;;;19.77;67.80;100105.99;130944;1256;107498;-80
2023/09/01 10:01:46;;;;;;;3.10;1.70;;;;;;;19.96;67.88;100105.55;130887;1256;107843;-81
2023/09/01 10:17:35;;;;;;;2.70;1.30;;;;;;;20.77;65.90;100112.49;127795;1283;648330;-81
2023/09/01 10:20:44;;;;;;;3.40;1.40;;;;;;;20.95;65.23;100116.00;130124;1266;125051;-80
2023/09/01 10:23:50;;;;;;;1.70;1.10;;;;;;;21.01;64.83;100111.69;130244;1264;106543;-80
2023/09/01 10:27:10;;;;;;;2.30;1.30;;;;;;;21.15;64.11;100117.25;130483;1262;108485;-80
2023/09/01 10:30:30;;;;;;;2.80;1.60;;;;;;;21.25;63.89;100117.38;130634;1260;107236;-81
2023/09/01 10:33:36;;;;;;;2.40;1.20;;;;;;;21.38;63.67;100113.58;130712;1260;108672;-81
2023/09/01 10:36:45;;;;;;;2.40;1.30;;;;;;;21.47;63.15;100120.54;130577;1263;107151;-81
2023/09/01 10:39:51;;;;;;;1.60;1.20;;;;;;;21.58;63.78;100113.35;130538;1275;108371;-81
2023/09/01 10:42:57;;;;;;;3.10;1.20;;;;;;;21.70;62.89;100111.06;130596;1260;107675;-81
2023/09/01 10:46:26;;;;;;;1.70;1.30;;;;;;;21.61;62.46;100109.90;130596;1258;108008;-80
2023/09/01 10:50:01;;;;;;;2.20;1.10;;;;;;;21.67;62.78;100112.29;130591;1263;107609;-80
2023/09/01 10:53:31;;;;;;;1.40;1.20;;;;;;;21.62;62.11;100107.39;130347;1269;107582;-82
2023/09/01 10:56:56;;;;;;;3.00;1.10;;;;;;;21.53;62.16;100108.83;130989;1254;108603;-80
2023/09/01 11:00:02;;;;;;;1.50;1.30;;;;;;;21.61;61.47;100102.96;130900;1256;107750;-80
2023/09/01 11:03:29;;;;;;;2.40;1.80;;;;;;;21.66;61.44;100095.75;130895;1268;108680;-81
2023/09/01 11:07:08;;;;;;;1.60;1.20;;;;;;;21.73;60.94;100096.61;130942;1256;108656;-81
2023/09/01 11:10:27;;;;;;;2.60;1.40;;;;;;;21.75;60.51;100094.21;130927;1257;106593;-80
2023/09/01 11:13:32;;;;;;;2.00;1.40;;;;;;;21.61;59.53;100093.56;130912;1254;108811;-81
2023/09/01 11:16:46;;;;;;;2.00;1.30;;;;;;;21.44;60.01;100094.91;130858;1254;107032;-81
2023/09/01 11:19:52;;;;;;;1.40;1.20;;;;;;;21.37;60.10;100092.55;130833;1254;106804;-80
2023/09/01 11:23:02;;;;;;;2.10;1.20;;;;;;;21.30;60.07;100093.69;130857;1257;108790;-80
2023/09/01 11:26:09;;;;;;;1.60;1.20;;;;;;;21.20;60.35;100093.30;130822;1252;108707;-80
2023/09/01 11:29:15;;;;;;;2.00;1.00;;;;;;;21.20;60.75;100094.21;130946;1253;107884;-81
2023/09/01 11:32:28;;;;;;;1.50;1.40;;;;;;;21.22;60.54;100097.58;130939;1254;106898;-81
2023/09/01 11:35:34;;;;;;;1.80;1.30;;;;;;;21.30;59.66;100089.30;130828;1257;107698;-81
2023/09/01 11:38:43;;;;;;;1.60;1.40;;;;;;;21.37;59.28;100089.13;130851;1257;106666;-80
2023/09/01 11:41:49;;;;;;;1.40;1.10;;;;;;;21.53;59.28;100088.99;131017;1264;108641;-80
2023/09/01 11:44:56;;;;;;;1.80;1.30;;;;;;;21.56;59.44;100092.13;131550;1254;109010;-81
2023/09/01 11:48:04;;;;;;;1.90;1.30;;;;;;;21.58;59.56;100092.23;131245;1255;107681;-79
2023/09/01 11:51:10;;;;;;;2.30;1.40;;;;;;;21.61;57.72;100093.81;130846;1267;109264;-80
2023/09/01 11:54:16;;;;;;;1.80;1.40;;;;;;;21.50;58.62;100095.34;131013;1256;107511;-80
2023/09/01 11:57:23;;;;;;;2.60;1.60;;;;;;;21.54;58.67;100097.00;130870;1258;108384;-81
2023/09/01 12:00:39;;;;;;;3.20;1.40;;;;;;;21.49;57.98;100094.22;131397;1254;107722;-82
2023/09/01 12:03:47;;;;;;;1.70;1.40;;;;;;;21.58;58.60;100089.52;130974;1254;106686;-82
2023/09/01 12:06:53;;;;;;;2.20;1.30;;;;;;;21.69;58.62;100088.95;131019;1256;105858;-83
2023/09/01 12:09:58;;;;;;;2.40;1.30;;;;;;;21.66;58.44;100095.64;131459;1253;108807;-82
2023/09/01 12:13:09;;;;;;;2.20;1.50;;;;;;;21.68;58.10;100088.80;131131;1256;106720;-84
2023/09/01 12:16:23;;;;;;;2.20;1.40;;;;;;;21.66;57.49;100084.90;131038;1254;107143;-82
2023/09/01 12:19:45;;;;;;;2.10;1.30;;;;;;;21.68;58.26;100086.38;131352;1253;108609;-82
2023/09/01 12:22:50;;;;;;;3.00;1.50;;;;;;;21.85;57.56;100085.33;131049;1253;106999;-80
2023/09/01 12:25:57;;;;;;;1.90;1.30;;;;;;;21.98;56.43;100084.61;131057;1266;107512;-78
2023/09/01 12:29:02;;;;;;;3.90;1.60;;;;;;;22.03;55.93;100086.16;131847;1253;108744;-78
2023/09/01 12:32:08;;;;;;;1.80;1.30;;;;;;;21.97;56.22;100086.91;131287;1256;107288;-79
2023/09/01 12:35:14;;;;;;;1.60;1.20;;;;;;;21.83;55.63;100086.45;130927;1257;107709;-76
2023/09/01 12:38:20;;;;;;;2.30;1.40;;;;;;;21.68;56.65;100091.58;130918;1266;107443;-77
2023/09/01 12:41:26;;;;;;;2.80;1.80;;;;;;;21.61;56.73;100094.10;130863;1268;107471;-80
2023/09/01 12:44:32;;;;;;;1.70;1.40;;;;;;;21.58;56.66;100092.95;130896;1256;107821;-77
2023/09/01 12:47:37;;;;;;;2.30;1.60;;;;;;;21.57;56.94;100093.00;131022;1254;107122;-77
2023/09/01 12:50:46;;;;;;;2.20;1.60;;;;;;;21.66;56.99;100093.04;130879;1256;107300;-77
2023/09/01 12:53:52;;;;;;;2.70;1.40;;;;;;;21.84;56.29;100089.23;130994;1254;106622;-78
2023/09/01 12:56:58;;;;;;;2.30;1.40;;;;;;;21.98;55.77;100088.17;130939;1256;107623;-78
2023/09/01 13:00:04;;;;;;;2.90;1.40;;;;;;;22.03;56.17;100091.63;130891;1256;106358;-77
2023/09/01 13:03:10;;;;;;;2.50;1.20;;;;;;;21.84;55.60;100092.48;130900;1257;107595;-77
2023/09/01 13:06:16;;;;;;;1.60;1.40;;;;;;;21.63;56.04;100092.37;130913;1254;107444;-79
2023/09/01 13:09:21;;;;;;;2.60;1.40;;;;;;;21.50;55.99;100091.67;130880;1256;108014;-78
2023/09/01 13:12:27;;;;;;;2.10;1.50;;;;;;;21.40;56.39;100087.61;130829;1267;107729;-78
2023/09/01 13:15:33;;;;;;;2.90;1.50;;;;;;;21.28;56.16;100086.95;130886;1254;106813;-79
2023/09/01 13:18:39;;;;;;;2.30;1.80;;;;;;;21.21;55.97;100088.59;130857;1256;105809;-78
2023/09/01 13:21:45;;;;;;;2.50;1.70;;;;;;;21.21;56.09;100083.40;130835;1256;108392;-79
2023/09/01 13:24:51;;;;;;;2.80;1.70;;;;;;;21.29;55.34;100076.42;130850;1254;106528;-79
2023/09/01 13:27:57;;;;;;;2.70;1.60;;;;;;;21.47;56.30;100075.41;130819;1254;108115;-78
2023/09/01 13:31:03;;;;;;;3.70;1.60;;;;;;;21.70;55.75;100076.52;130873;1256;107718;-77
2023/09/01 13:34:08;;;;;;;1.80;1.30;;;;;;;21.85;54.84;100080.95;130843;1254;106928;-78
2023/09/01 13:37:15;;;;;;;2.00;1.60;;;;;;;21.91;55.08;100079.59;130855;1256;106601;-77
2023/09/01 13:40:25;;;;;;;2.40;1.70;;;;;;;21.88;54.58;100081.30;130948;1256;107385;-77
2023/09/01 13:43:31;;;;;;;4.30;1.40;;;;;;;21.84;54.84;100082.88;130871;1256;106755;-77
2023/09/01 13:46:37;;;;;;;1.90;1.50;;;;;;;21.80;55.09;100086.90;130844;1256;108207;-77
2023/09/01 13:49:43;;;;;;;2.50;1.50;;;;;;;21.70;55.31;100093.16;130855;1266;108457;-77
2023/09/01 13:52:49;;;;;;;2.40;1.70;;;;;;;21.67;55.44;100092.40;130873;1254;107863;-79
2023/09/01 13:55:55;;;;;;;2.60;1.60;;;;;;;21.61;55.44;100092.36;130887;1254;107771;-78
2023/09/01 13:59:01;;;;;;;2.70;1.70;;;;;;;21.50;54.87;100090.29;130835;1267;108247;-78
2023/09/01 14:02:07;;;;;;;2.50;1.40;;;;;;;21.52;55.43;100086.80;130880;1257;107888;-78
2023/09/01 14:05:13;;;;;;;1.90;1.50;;;;;;;21.54;54.92;100082.84;130857;1254;106814;-77
2023/09/01 14:08:18;;;;;;;2.60;1.70;;;;;;;21.45;54.93;100083.83;130904;1257;106972;-77
2023/09/01 14:11:24;;;;;;;2.90;1.50;;;;;;;21.34;55.14;100085.79;130834;1256;107657;-77
2023/09/01 14:14:31;;;;;;;1.70;1.40;;;;;;;21.29;55.37;100088.31;130867;1257;108411;-79
2023/09/01 14:17:37;;;;;;;2.30;1.60;;;;;;;21.38;55.22;100085.90;130502;1259;107862;-77
2023/09/01 14:20:43;;;;;;;2.20;1.60;;;;;;;21.57;55.27;100084.88;130623;1259;107015;-77
2023/09/01 14:23:49;;;;;;;1.90;1.70;;;;;;;21.68;54.69;100085.77;130652;1258;107903;-77
2023/09/01 14:26:55;;;;;;;2.90;1.70;;;;;;;21.73;54.61;100085.68;130549;1272;106678;-78
2023/09/01 14:30:01;;;;;;;3.00;1.60;;;;;;;21.74;54.76;100094.40;130614;1258;107326;-77
2023/09/01 14:33:07;;;;;;;3.00;1.70;;;;;;;21.74;54.54;100096.52;130572;1259;107303;-77